Voyageurs National Park, MN

11:22 PM CDT on October 25, 2014 (GMT -0500)
Wayside Lane | Change Station
CLOSE
Current Station
Personal Weather Station
Location: International Falls, MN
Elevation: 1115 ft
Nearby Weather Stations

Elev 1115 ft 48.60 °N, 93.42 °W | Updated 7 minutes ago

Clear
Clear
37.6 °F
Feels Like 38 °F
N
1.0
Wind Variable Wind from SW
Gusts 1.0 mph

Today
High -- | Low -- °F
--% Chance of Precip.
Yesterday
High -- | Low -- °F
Precip. -- in
7:49 AM 6:05 PM
Waxing Crescent, 6% visible
Pressure 29.99 in
Visibility 10.0 miles
Clouds Clear
Windchill 38 °F
Dew Point 29 °F
Humidity 70%
Rainfall 0.00 in
Snow Depth Not available.
UV 0 out of 12
Pollen 1.60 out of 12
Air Quality Not available.
Flu Activity Sporadic
METAR KINL 260355Z AUTO 24005KT 10SM CLR M02/M05 A2995 RMK AO2 SLP156 T10221050

More Conditions Fewer Conditions

Pressure 29.99 in
Visibility 10.0 miles
Clouds Clear
Windchill 38 °F
Dew Point 29 °F
Humidity 70%
Rainfall 0.00 in
Snow Depth Not available.
UV 0 out of 12
Pollen 1.60 out of 12
Air Quality Not available.
Flu Activity Sporadic
METAR KINL 260355Z AUTO 24005KT 10SM CLR M02/M05 A2995 RMK AO2 SLP156 T10221050

More Conditions Fewer Conditions

10-Day Weather Forecast

Almanac

Astronomy

Oct. 25, 2014 Rise Set
Actual Time 7:49 AM CDT 6:05 PM CDT
Civil Twilight 7:16 AM CDT 6:37 PM CDT
Nautical Twilight 6:39 AM CDT 7:14 PM CDT
Astronomical Twilight 6:03 AM CDT 7:50 PM CDT
Moon 9:34 AM CDT (10/25) 7:21 PM CDT (10/25)
Length of Visible Light 11h 21m
Length of Day
10h 16m
Tomorrow will be 3m 19s shorter.
Waxing Crescent, 6% of the Moon is Illuminated
Oct 26
Waxing Crescent
Oct 30
First Quarter
Nov 6
Full
Nov 14
Last Quarter
Nov 22
New

Yesterday's Extremes

State Highs State Lows

Community

WunderPhotos

Upload Photos

1,765,110 photos uploaded!

Nearby

Snow Depth

Station Depth Elevation
No new snow has been reported.

Earthquake Activity

City Distance Mag. Time & Date
No recent earthquake activity has been reported nearby.
Minimum magnitude displayed is 2.5.

Coastal Water Temperatures

Place Temperature
No Stations Reporting

Nearby Weather Stations